sensor_id;sensor_type;location;lat;lon;timestamp;P1;durP1;ratioP1;P2;durP2;ratioP2
84591;SDS011;74826;50.812;16.038;2024-03-23T00:54:02;30.88;;;13.68;;
84591;SDS011;74826;50.812;16.038;2024-03-23T00:56:28;29.30;;;13.85;;
84591;SDS011;74826;50.812;16.038;2024-03-23T00:58:54;29.92;;;12.80;;
84591;SDS011;74826;50.812;16.038;2024-03-23T01:01:19;25.75;;;10.40;;
84591;SDS011;74826;50.812;16.038;2024-03-23T01:03:44;29.73;;;11.85;;
84591;SDS011;74826;50.812;16.038;2024-03-23T01:06:10;30.95;;;12.55;;
84591;SDS011;74826;50.812;16.038;2024-03-23T01:08:35;34.53;;;14.13;;
84591;SDS011;74826;50.812;16.038;2024-03-23T01:11:01;44.58;;;15.52;;
84591;SDS011;74826;50.812;16.038;2024-03-23T01:13:27;31.63;;;13.32;;
84591;SDS011;74826;50.812;16.038;2024-03-23T01:15:53;26.63;;;13.57;;
84591;SDS011;74826;50.812;16.038;2024-03-23T01:18:20;35.58;;;15.98;;
84591;SDS011;74826;50.812;16.038;2024-03-23T01:20:47;33.45;;;16.05;;
84591;SDS011;74826;50.812;16.038;2024-03-23T01:23:12;32.42;;;15.02;;
84591;SDS011;74826;50.812;16.038;2024-03-23T01:25:38;26.13;;;13.40;;
84591;SDS011;74826;50.812;16.038;2024-03-23T01:28:03;27.85;;;11.88;;
84591;SDS011;74826;50.812;16.038;2024-03-23T01:30:29;31.27;;;12.55;;
84591;SDS011;74826;50.812;16.038;2024-03-23T01:32:55;35.15;;;12.90;;
84591;SDS011;74826;50.812;16.038;2024-03-23T01:35:21;33.17;;;13.43;;
84591;SDS011;74826;50.812;16.038;2024-03-23T01:37:46;36.72;;;14.55;;
84591;SDS011;74826;50.812;16.038;2024-03-23T01:40:11;30.33;;;12.20;;
84591;SDS011;74826;50.812;16.038;2024-03-23T01:42:40;30.45;;;13.10;;
84591;SDS011;74826;50.812;16.038;2024-03-23T01:45:09;29.50;;;13.50;;
84591;SDS011;74826;50.812;16.038;2024-03-23T01:47:37;36.75;;;13.75;;
84591;SDS011;74826;50.812;16.038;2024-03-23T01:50:02;26.55;;;13.02;;
84591;SDS011;74826;50.812;16.038;2024-03-23T01:52:28;36.15;;;17.17;;
84591;SDS011;74826;50.812;16.038;2024-03-23T01:54:55;31.55;;;14.23;;
84591;SDS011;74826;50.812;16.038;2024-03-23T01:57:20;33.88;;;14.95;;
84591;SDS011;74826;50.812;16.038;2024-03-23T01:59:46;35.85;;;13.80;;
84591;SDS011;74826;50.812;16.038;2024-03-23T02:02:12;30.75;;;13.10;;
84591;SDS011;74826;50.812;16.038;2024-03-23T02:04:38;32.28;;;13.65;;
84591;SDS011;74826;50.812;16.038;2024-03-23T02:07:04;30.63;;;13.10;;
84591;SDS011;74826;50.812;16.038;2024-03-23T02:09:31;33.45;;;12.20;;
84591;SDS011;74826;50.812;16.038;2024-03-23T02:11:57;33.58;;;12.20;;
84591;SDS011;74826;50.812;16.038;2024-03-23T02:14:23;36.65;;;13.15;;
84591;SDS011;74826;50.812;16.038;2024-03-23T02:16:48;29.88;;;12.95;;
84591;SDS011;74826;50.812;16.038;2024-03-23T02:19:13;30.08;;;14.07;;
84591;SDS011;74826;50.812;16.038;2024-03-23T02:21:39;29.17;;;11.32;;
84591;SDS011;74826;50.812;16.038;2024-03-23T02:24:04;30.50;;;12.25;;
84591;SDS011;74826;50.812;16.038;2024-03-23T02:26:30;35.13;;;14.32;;
84591;SDS011;74826;50.812;16.038;2024-03-23T02:28:55;33.63;;;14.55;;
84591;SDS011;74826;50.812;16.038;2024-03-23T02:31:20;32.88;;;14.10;;
84591;SDS011;74826;50.812;16.038;2024-03-23T02:33:46;34.72;;;13.30;;
84591;SDS011;74826;50.812;16.038;2024-03-23T02:36:11;27.20;;;12.23;;
84591;SDS011;74826;50.812;16.038;2024-03-23T02:38:37;32.70;;;12.05;;
84591;SDS011;74826;50.812;16.038;2024-03-23T02:41:05;29.55;;;12.73;;
84591;SDS011;74826;50.812;16.038;2024-03-23T02:43:30;30.80;;;13.40;;
84591;SDS011;74826;50.812;16.038;2024-03-23T02:45:56;33.00;;;13.93;;
84591;SDS011;74826;50.812;16.038;2024-03-23T02:48:21;31.15;;;14.43;;
84591;SDS011;74826;50.812;16.038;2024-03-23T02:50:46;31.10;;;12.77;;
84591;SDS011;74826;50.812;16.038;2024-03-23T02:53:12;27.77;;;11.63;;
84591;SDS011;74826;50.812;16.038;2024-03-23T02:55:37;32.33;;;12.75;;
84591;SDS011;74826;50.812;16.038;2024-03-23T02:58:03;31.50;;;13.30;;
84591;SDS011;74826;50.812;16.038;2024-03-23T03:00:28;33.85;;;14.35;;
84591;SDS011;74826;50.812;16.038;2024-03-23T03:02:54;29.17;;;12.68;;
84591;SDS011;74826;50.812;16.038;2024-03-23T03:05:20;39.28;;;15.27;;
84591;SDS011;74826;50.812;16.038;2024-03-23T03:07:45;33.90;;;12.68;;
84591;SDS011;74826;50.812;16.038;2024-03-23T03:10:11;37.95;;;14.40;;
84591;SDS011;74826;50.812;16.038;2024-03-23T03:12:37;36.28;;;14.15;;
84591;SDS011;74826;50.812;16.038;2024-03-23T03:15:03;36.15;;;14.63;;
84591;SDS011;74826;50.812;16.038;2024-03-23T03:17:29;35.53;;;13.73;;
84591;SDS011;74826;50.812;16.038;2024-03-23T03:19:55;35.60;;;14.35;;
84591;SDS011;74826;50.812;16.038;2024-03-23T03:22:21;29.48;;;12.55;;
84591;SDS011;74826;50.812;16.038;2024-03-23T03:24:49;35.10;;;13.25;;
84591;SDS011;74826;50.812;16.038;2024-03-23T03:27:15;36.35;;;12.98;;
84591;SDS011;74826;50.812;16.038;2024-03-23T03:29:40;38.88;;;16.58;;
84591;SDS011;74826;50.812;16.038;2024-03-23T03:32:05;35.30;;;14.90;;
84591;SDS011;74826;50.812;16.038;2024-03-23T03:34:31;36.63;;;13.95;;
84591;SDS011;74826;50.812;16.038;2024-03-23T03:36:56;30.02;;;13.23;;
84591;SDS011;74826;50.812;16.038;2024-03-23T03:39:22;31.42;;;14.30;;
84591;SDS011;74826;50.812;16.038;2024-03-23T03:41:48;31.73;;;12.27;;
84591;SDS011;74826;50.812;16.038;2024-03-23T03:46:39;29.33;;;12.93;;
84591;SDS011;74826;50.812;16.038;2024-03-23T03:49:04;31.48;;;12.40;;
84591;SDS011;74826;50.812;16.038;2024-03-23T03:51:30;37.90;;;15.07;;
84591;SDS011;74826;50.812;16.038;2024-03-23T03:53:55;39.97;;;14.70;;
84591;SDS011;74826;50.812;16.038;2024-03-23T03:56:21;32.22;;;13.30;;
84591;SDS011;74826;50.812;16.038;2024-03-23T03:58:47;33.28;;;14.15;;
84591;SDS011;74826;50.812;16.038;2024-03-23T04:01:12;32.05;;;13.55;;
84591;SDS011;74826;50.812;16.038;2024-03-23T04:03:38;39.92;;;14.23;;
84591;SDS011;74826;50.812;16.038;2024-03-23T04:06:08;32.45;;;13.57;;
84591;SDS011;74826;50.812;16.038;2024-03-23T04:08:33;28.33;;;13.20;;
84591;SDS011;74826;50.812;16.038;2024-03-23T04:10:59;33.35;;;12.45;;
84591;SDS011;74826;50.812;16.038;2024-03-23T04:13:24;33.78;;;14.10;;
84591;SDS011;74826;50.812;16.038;2024-03-23T04:15:53;34.55;;;13.88;;
84591;SDS011;74826;50.812;16.038;2024-03-23T04:18:20;35.35;;;16.17;;
84591;SDS011;74826;50.812;16.038;2024-03-23T04:20:45;32.85;;;12.98;;
84591;SDS011;74826;50.812;16.038;2024-03-23T04:23:11;32.42;;;14.32;;
84591;SDS011;74826;50.812;16.038;2024-03-23T04:25:37;34.50;;;13.32;;
84591;SDS011;74826;50.812;16.038;2024-03-23T04:28:02;32.45;;;14.43;;
84591;SDS011;74826;50.812;16.038;2024-03-23T04:30:27;30.30;;;13.77;;
84591;SDS011;74826;50.812;16.038;2024-03-23T04:32:54;27.73;;;13.00;;
84591;SDS011;74826;50.812;16.038;2024-03-23T04:35:19;37.95;;;16.15;;
84591;SDS011;74826;50.812;16.038;2024-03-23T04:37:47;32.28;;;13.40;;
84591;SDS011;74826;50.812;16.038;2024-03-23T04:40:12;34.00;;;13.43;;
84591;SDS011;74826;50.812;16.038;2024-03-23T04:42:38;31.50;;;11.73;;
84591;SDS011;74826;50.812;16.038;2024-03-23T04:45:04;33.00;;;15.13;;
84591;SDS011;74826;50.812;16.038;2024-03-23T04:47:31;32.47;;;12.88;;
84591;SDS011;74826;50.812;16.038;2024-03-23T04:49:56;31.95;;;13.27;;
84591;SDS011;74826;50.812;16.038;2024-03-23T04:52:22;33.78;;;14.10;;
84591;SDS011;74826;50.812;16.038;2024-03-23T04:54:47;36.72;;;14.05;;
84591;SDS011;74826;50.812;16.038;2024-03-23T04:57:12;28.48;;;14.32;;
84591;SDS011;74826;50.812;16.038;2024-03-23T04:59:38;32.45;;;14.10;;
84591;SDS011;74826;50.812;16.038;2024-03-23T05:02:03;34.00;;;14.15;;
84591;SDS011;74826;50.812;16.038;2024-03-23T05:04:29;35.83;;;15.40;;
84591;SDS011;74826;50.812;16.038;2024-03-23T05:06:54;34.28;;;14.10;;
84591;SDS011;74826;50.812;16.038;2024-03-23T05:09:19;36.58;;;15.27;;
84591;SDS011;74826;50.812;16.038;2024-03-23T05:11:45;35.13;;;15.77;;
84591;SDS011;74826;50.812;16.038;2024-03-23T05:14:14;35.45;;;15.88;;
84591;SDS011;74826;50.812;16.038;2024-03-23T05:16:40;36.15;;;16.17;;
84591;SDS011;74826;50.812;16.038;2024-03-23T05:19:05;33.00;;;14.27;;
84591;SDS011;74826;50.812;16.038;2024-03-23T05:21:31;31.85;;;13.30;;
84591;SDS011;74826;50.812;16.038;2024-03-23T05:23:56;38.90;;;15.15;;
84591;SDS011;74826;50.812;16.038;2024-03-23T05:26:22;31.83;;;13.23;;
84591;SDS011;74826;50.812;16.038;2024-03-23T05:28:48;32.50;;;13.13;;
84591;SDS011;74826;50.812;16.038;2024-03-23T05:31:22;36.65;;;15.52;;
84591;SDS011;74826;50.812;16.038;2024-03-23T05:33:49;31.20;;;14.00;;
84591;SDS011;74826;50.812;16.038;2024-03-23T05:36:14;35.10;;;14.07;;
84591;SDS011;74826;50.812;16.038;2024-03-23T05:38:39;32.80;;;12.88;;
84591;SDS011;74826;50.812;16.038;2024-03-23T05:41:05;36.47;;;13.95;;
84591;SDS011;74826;50.812;16.038;2024-03-23T05:43:30;33.15;;;13.23;;
84591;SDS011;74826;50.812;16.038;2024-03-23T05:45:56;35.15;;;14.27;;
84591;SDS011;74826;50.812;16.038;2024-03-23T05:48:22;34.28;;;13.93;;
84591;SDS011;74826;50.812;16.038;2024-03-23T05:50:48;35.88;;;14.00;;
84591;SDS011;74826;50.812;16.038;2024-03-23T05:53:15;32.40;;;14.60;;
84591;SDS011;74826;50.812;16.038;2024-03-23T05:55:40;36.00;;;14.73;;
84591;SDS011;74826;50.812;16.038;2024-03-23T05:58:06;33.45;;;14.90;;
84591;SDS011;74826;50.812;16.038;2024-03-23T06:00:31;33.22;;;14.80;;
84591;SDS011;74826;50.812;16.038;2024-03-23T06:02:56;32.90;;;14.65;;
84591;SDS011;74826;50.812;16.038;2024-03-23T06:05:22;35.33;;;13.73;;
84591;SDS011;74826;50.812;16.038;2024-03-23T06:07:48;31.33;;;12.60;;
84591;SDS011;74826;50.812;16.038;2024-03-23T06:10:14;37.17;;;14.95;;
84591;SDS011;74826;50.812;16.038;2024-03-23T06:12:40;33.30;;;13.80;;
84591;SDS011;74826;50.812;16.038;2024-03-23T06:15:05;38.60;;;14.65;;
84591;SDS011;74826;50.812;16.038;2024-03-23T06:17:35;34.90;;;12.85;;
84591;SDS011;74826;50.812;16.038;2024-03-23T06:20:05;33.97;;;13.65;;
84591;SDS011;74826;50.812;16.038;2024-03-23T06:22:31;36.67;;;13.40;;
84591;SDS011;74826;50.812;16.038;2024-03-23T06:24:57;34.33;;;15.25;;
84591;SDS011;74826;50.812;16.038;2024-03-23T06:27:22;35.15;;;14.38;;
84591;SDS011;74826;50.812;16.038;2024-03-23T06:29:48;31.88;;;13.45;;
84591;SDS011;74826;50.812;16.038;2024-03-23T06:32:13;36.20;;;14.63;;
84591;SDS011;74826;50.812;16.038;2024-03-23T06:34:41;34.55;;;14.68;;
84591;SDS011;74826;50.812;16.038;2024-03-23T06:37:06;30.52;;;12.25;;
84591;SDS011;74826;50.812;16.038;2024-03-23T06:39:32;27.33;;;11.65;;
84591;SDS011;74826;50.812;16.038;2024-03-23T06:41:57;33.58;;;13.30;;
84591;SDS011;74826;50.812;16.038;2024-03-23T06:44:23;29.92;;;14.45;;
84591;SDS011;74826;50.812;16.038;2024-03-23T06:46:48;31.23;;;13.15;;
84591;SDS011;74826;50.812;16.038;2024-03-23T06:49:14;31.38;;;14.02;;
84591;SDS011;74826;50.812;16.038;2024-03-23T06:51:40;32.97;;;14.63;;
84591;SDS011;74826;50.812;16.038;2024-03-23T06:54:06;31.85;;;13.15;;
84591;SDS011;74826;50.812;16.038;2024-03-23T06:56:31;31.50;;;13.40;;
84591;SDS011;74826;50.812;16.038;2024-03-23T06:58:57;34.63;;;14.02;;
84591;SDS011;74826;50.812;16.038;2024-03-23T07:01:23;29.60;;;13.88;;
84591;SDS011;74826;50.812;16.038;2024-03-23T07:03:48;31.75;;;13.27;;
84591;SDS011;74826;50.812;16.038;2024-03-23T07:06:14;32.33;;;13.32;;
84591;SDS011;74826;50.812;16.038;2024-03-23T07:08:39;32.88;;;14.13;;
84591;SDS011;74826;50.812;16.038;2024-03-23T07:11:05;27.40;;;12.85;;
84591;SDS011;74826;50.812;16.038;2024-03-23T07:13:30;36.03;;;14.80;;
84591;SDS011;74826;50.812;16.038;2024-03-23T07:15:56;27.73;;;12.63;;
84591;SDS011;74826;50.812;16.038;2024-03-23T07:20:54;29.05;;;12.13;;
84591;SDS011;74826;50.812;16.038;2024-03-23T07:23:21;32.38;;;13.02;;
84591;SDS011;74826;50.812;16.038;2024-03-23T07:25:55;26.95;;;12.38;;
84591;SDS011;74826;50.812;16.038;2024-03-23T07:28:28;25.75;;;11.98;;
84591;SDS011;74826;50.812;16.038;2024-03-23T07:31:09;30.27;;;12.75;;
84591;SDS011;74826;50.812;16.038;2024-03-23T07:33:37;26.08;;;12.13;;
84591;SDS011;74826;50.812;16.038;2024-03-23T07:36:06;26.75;;;11.60;;
84591;SDS011;74826;50.812;16.038;2024-03-23T07:38:32;26.80;;;12.15;;
84591;SDS011;74826;50.812;16.038;2024-03-23T07:43:28;28.42;;;12.48;;
84591;SDS011;74826;50.812;16.038;2024-03-23T07:45:54;26.77;;;10.82;;
84591;SDS011;74826;50.812;16.038;2024-03-23T07:48:20;26.33;;;11.40;;
84591;SDS011;74826;50.812;16.038;2024-03-23T07:51:03;26.05;;;11.35;;
84591;SDS011;74826;50.812;16.038;2024-03-23T07:53:29;37.05;;;12.13;;
84591;SDS011;74826;50.812;16.038;2024-03-23T07:56:06;43.97;;;17.35;;
84591;SDS011;74826;50.812;16.038;2024-03-23T07:58:35;33.90;;;14.20;;
84591;SDS011;74826;50.812;16.038;2024-03-23T08:01:05;34.30;;;12.75;;
84591;SDS011;74826;50.812;16.038;2024-03-23T08:03:33;40.83;;;14.65;;
84591;SDS011;74826;50.812;16.038;2024-03-23T08:06:06;24.95;;;11.73;;
84591;SDS011;74826;50.812;16.038;2024-03-23T08:08:34;25.15;;;10.90;;
84591;SDS011;74826;50.812;16.038;2024-03-23T08:13:25;25.93;;;11.03;;
84591;SDS011;74826;50.812;16.038;2024-03-23T08:15:51;30.20;;;11.95;;
84591;SDS011;74826;50.812;16.038;2024-03-23T08:20:42;26.65;;;13.13;;
84591;SDS011;74826;50.812;16.038;2024-03-23T08:23:07;217.55;;;54.25;;
84591;SDS011;74826;50.812;16.038;2024-03-23T08:25:33;42.70;;;17.25;;
84591;SDS011;74826;50.812;16.038;2024-03-23T08:27:59;78.80;;;26.63;;
84591;SDS011;74826;50.812;16.038;2024-03-23T08:30:25;77.93;;;27.20;;
84591;SDS011;74826;50.812;16.038;2024-03-23T08:32:51;51.35;;;20.25;;
84591;SDS011;74826;50.812;16.038;2024-03-23T08:37:41;29.30;;;13.70;;
84591;SDS011;74826;50.812;16.038;2024-03-23T08:40:07;29.60;;;13.57;;
84591;SDS011;74826;50.812;16.038;2024-03-23T08:42:33;41.28;;;17.88;;
84591;SDS011;74826;50.812;16.038;2024-03-23T08:47:24;33.47;;;16.30;;
84591;SDS011;74826;50.812;16.038;2024-03-23T08:49:50;21.95;;;10.80;;
84591;SDS011;74826;50.812;16.038;2024-03-23T08:54:41;34.95;;;16.13;;
84591;SDS011;74826;50.812;16.038;2024-03-23T08:59:32;22.60;;;11.25;;
84591;SDS011;74826;50.812;16.038;2024-03-23T09:04:23;21.98;;;10.13;;
84591;SDS011;74826;50.812;16.038;2024-03-23T09:09:13;27.43;;;13.93;;
84591;SDS011;74826;50.812;16.038;2024-03-23T09:14:04;22.85;;;12.32;;
84591;SDS011;74826;50.812;16.038;2024-03-23T09:18:55;28.02;;;13.93;;
84591;SDS011;74826;50.812;16.038;2024-03-23T09:23:45;26.42;;;13.10;;
84591;SDS011;74826;50.812;16.038;2024-03-23T09:28:36;21.87;;;9.47;;
84591;SDS011;74826;50.812;16.038;2024-03-23T09:33:30;24.38;;;12.00;;
84591;SDS011;74826;50.812;16.038;2024-03-23T09:35:56;19.00;;;11.38;;
84591;SDS011;74826;50.812;16.038;2024-03-23T09:38:21;19.73;;;10.10;;
84591;SDS011;74826;50.812;16.038;2024-03-23T09:40:50;25.45;;;12.30;;
84591;SDS011;74826;50.812;16.038;2024-03-23T09:43:18;23.13;;;10.73;;
84591;SDS011;74826;50.812;16.038;2024-03-23T09:45:44;28.85;;;12.82;;
84591;SDS011;74826;50.812;16.038;2024-03-23T09:48:10;23.10;;;9.85;;
84591;SDS011;74826;50.812;16.038;2024-03-23T09:50:39;21.95;;;10.88;;
84591;SDS011;74826;50.812;16.038;2024-03-23T09:53:12;22.98;;;10.68;;
84591;SDS011;74826;50.812;16.038;2024-03-23T09:55:42;20.13;;;11.38;;
84591;SDS011;74826;50.812;16.038;2024-03-23T09:58:12;19.30;;;11.32;;
84591;SDS011;74826;50.812;16.038;2024-03-23T10:00:38;21.80;;;10.98;;
84591;SDS011;74826;50.812;16.038;2024-03-23T10:03:04;20.50;;;11.40;;
84591;SDS011;74826;50.812;16.038;2024-03-23T10:05:31;21.02;;;11.73;;
84591;SDS011;74826;50.812;16.038;2024-03-23T10:07:59;21.67;;;10.52;;
84591;SDS011;74826;50.812;16.038;2024-03-23T10:10:42;26.20;;;12.77;;
84591;SDS011;74826;50.812;16.038;2024-03-23T10:13:08;21.65;;;11.20;;
84591;SDS011;74826;50.812;16.038;2024-03-23T10:15:35;26.35;;;11.95;;
84591;SDS011;74826;50.812;16.038;2024-03-23T10:18:34;24.48;;;13.10;;
84591;SDS011;74826;50.812;16.038;2024-03-23T10:23:31;24.90;;;12.10;;
84591;SDS011;74826;50.812;16.038;2024-03-23T10:28:51;26.65;;;13.88;;
84591;SDS011;74826;50.812;16.038;2024-03-23T10:31:25;26.63;;;12.00;;
84591;SDS011;74826;50.812;16.038;2024-03-23T10:33:51;22.40;;;11.50;;
84591;SDS011;74826;50.812;16.038;2024-03-23T10:36:19;26.02;;;13.45;;
84591;SDS011;74826;50.812;16.038;2024-03-23T10:38:46;27.05;;;12.43;;
84591;SDS011;74826;50.812;16.038;2024-03-23T10:41:12;17.27;;;10.38;;
84591;SDS011;74826;50.812;16.038;2024-03-23T10:46:03;24.05;;;12.60;;
84591;SDS011;74826;50.812;16.038;2024-03-23T10:48:29;102.72;;;34.08;;
84591;SDS011;74826;50.812;16.038;2024-03-23T10:50:56;48.22;;;19.08;;
84591;SDS011;74826;50.812;16.038;2024-03-23T10:53:22;35.05;;;17.52;;
84591;SDS011;74826;50.812;16.038;2024-03-23T10:55:52;26.02;;;13.48;;
84591;SDS011;74826;50.812;16.038;2024-03-23T10:58:23;33.40;;;16.20;;
84591;SDS011;74826;50.812;16.038;2024-03-23T11:00:52;25.13;;;13.00;;
84591;SDS011;74826;50.812;16.038;2024-03-23T11:03:29;30.85;;;17.13;;
84591;SDS011;74826;50.812;16.038;2024-03-23T11:05:55;25.17;;;10.82;;
84591;SDS011;74826;50.812;16.038;2024-03-23T11:08:34;21.10;;;10.57;;
84591;SDS011;74826;50.812;16.038;2024-03-23T11:11:25;26.75;;;12.93;;
84591;SDS011;74826;50.812;16.038;2024-03-23T11:13:53;20.65;;;12.23;;
84591;SDS011;74826;50.812;16.038;2024-03-23T11:16:23;25.15;;;11.45;;
84591;SDS011;74826;50.812;16.038;2024-03-23T11:22:04;25.85;;;12.27;;
84591;SDS011;74826;50.812;16.038;2024-03-23T11:24:33;15.90;;;7.63;;
84591;SDS011;74826;50.812;16.038;2024-03-23T11:26:59;24.42;;;10.10;;
84591;SDS011;74826;50.812;16.038;2024-03-23T11:29:29;13.25;;;7.25;;
84591;SDS011;74826;50.812;16.038;2024-03-23T11:31:55;14.50;;;6.95;;
84591;SDS011;74826;50.812;16.038;2024-03-23T11:34:21;13.77;;;7.22;;
84591;SDS011;74826;50.812;16.038;2024-03-23T11:39:15;13.98;;;6.90;;
84591;SDS011;74826;50.812;16.038;2024-03-23T11:41:56;58.55;;;19.83;;
84591;SDS011;74826;50.812;16.038;2024-03-23T11:44:25;13.85;;;8.80;;
84591;SDS011;74826;50.812;16.038;2024-03-23T11:46:52;9.40;;;6.43;;
84591;SDS011;74826;50.812;16.038;2024-03-23T11:49:24;11.57;;;6.75;;
84591;SDS011;74826;50.812;16.038;2024-03-23T11:51:50;14.45;;;8.48;;
84591;SDS011;74826;50.812;16.038;2024-03-23T11:54:20;17.25;;;10.18;;
84591;SDS011;74826;50.812;16.038;2024-03-23T11:57:03;17.80;;;9.13;;
84591;SDS011;74826;50.812;16.038;2024-03-23T11:59:33;20.88;;;9.68;;
84591;SDS011;74826;50.812;16.038;2024-03-23T12:02:00;16.58;;;8.05;;
84591;SDS011;74826;50.812;16.038;2024-03-23T12:04:30;16.67;;;9.50;;
84591;SDS011;74826;50.812;16.038;2024-03-23T12:09:34;11.93;;;7.13;;
84591;SDS011;74826;50.812;16.038;2024-03-23T12:14:30;12.50;;;7.15;;
84591;SDS011;74826;50.812;16.038;2024-03-23T12:16:58;11.82;;;7.43;;
84591;SDS011;74826;50.812;16.038;2024-03-23T12:19:32;11.27;;;6.43;;
84591;SDS011;74826;50.812;16.038;2024-03-23T12:24:23;10.43;;;5.83;;
84591;SDS011;74826;50.812;16.038;2024-03-23T12:26:49;13.75;;;6.32;;
84591;SDS011;74826;50.812;16.038;2024-03-23T12:31:40;10.75;;;5.22;;
84591;SDS011;74826;50.812;16.038;2024-03-23T12:36:31;15.03;;;5.13;;
84591;SDS011;74826;50.812;16.038;2024-03-23T12:38:56;7.03;;;4.43;;
84591;SDS011;74826;50.812;16.038;2024-03-23T12:41:23;10.25;;;4.28;;
84591;SDS011;74826;50.812;16.038;2024-03-23T12:43:49;7.53;;;4.28;;
84591;SDS011;74826;50.812;16.038;2024-03-23T12:46:14;9.63;;;4.53;;
84591;SDS011;74826;50.812;16.038;2024-03-23T12:48:40;11.50;;;5.13;;
84591;SDS011;74826;50.812;16.038;2024-03-23T12:51:07;12.10;;;4.60;;
84591;SDS011;74826;50.812;16.038;2024-03-23T12:53:32;8.27;;;4.03;;
84591;SDS011;74826;50.812;16.038;2024-03-23T12:55:58;9.57;;;4.43;;
84591;SDS011;74826;50.812;16.038;2024-03-23T12:58:23;8.63;;;4.47;;
84591;SDS011;74826;50.812;16.038;2024-03-23T13:00:48;7.80;;;4.88;;
84591;SDS011;74826;50.812;16.038;2024-03-23T13:03:14;9.68;;;3.70;;
84591;SDS011;74826;50.812;16.038;2024-03-23T13:05:40;10.93;;;5.25;;
84591;SDS011;74826;50.812;16.038;2024-03-23T13:08:06;12.90;;;4.15;;
84591;SDS011;74826;50.812;16.038;2024-03-23T13:10:32;6.75;;;3.78;;
84591;SDS011;74826;50.812;16.038;2024-03-23T13:12:58;9.50;;;4.55;;
84591;SDS011;74826;50.812;16.038;2024-03-23T13:15:23;9.05;;;4.78;;
84591;SDS011;74826;50.812;16.038;2024-03-23T13:17:48;7.05;;;4.18;;
84591;SDS011;74826;50.812;16.038;2024-03-23T13:20:14;4.00;;;2.13;;
84591;SDS011;74826;50.812;16.038;2024-03-23T13:22:40;3.78;;;2.08;;
84591;SDS011;74826;50.812;16.038;2024-03-23T13:25:05;3.45;;;2.80;;
84591;SDS011;74826;50.812;16.038;2024-03-23T13:27:31;2.30;;;1.80;;
84591;SDS011;74826;50.812;16.038;2024-03-23T13:29:56;3.72;;;1.80;;
84591;SDS011;74826;50.812;16.038;2024-03-23T13:32:22;1.83;;;1.38;;
84591;SDS011;74826;50.812;16.038;2024-03-23T13:34:48;2.83;;;2.17;;
84591;SDS011;74826;50.812;16.038;2024-03-23T13:37:15;1.98;;;1.38;;
84591;SDS011;74826;50.812;16.038;2024-03-23T13:39:41;2.10;;;1.63;;
84591;SDS011;74826;50.812;16.038;2024-03-23T13:42:07;2.38;;;1.98;;
84591;SDS011;74826;50.812;16.038;2024-03-23T13:44:34;3.55;;;2.05;;
84591;SDS011;74826;50.812;16.038;2024-03-23T13:46:59;2.58;;;1.70;;
84591;SDS011;74826;50.812;16.038;2024-03-23T13:49:28;4.25;;;2.42;;
84591;SDS011;74826;50.812;16.038;2024-03-23T13:51:55;3.40;;;2.33;;
84591;SDS011;74826;50.812;16.038;2024-03-23T13:54:23;3.47;;;2.22;;
84591;SDS011;74826;50.812;16.038;2024-03-23T13:56:49;2.70;;;2.13;;
84591;SDS011;74826;50.812;16.038;2024-03-23T13:59:19;3.53;;;2.22;;
84591;SDS011;74826;50.812;16.038;2024-03-23T14:01:46;2.78;;;2.13;;
84591;SDS011;74826;50.812;16.038;2024-03-23T14:04:12;2.45;;;1.50;;
84591;SDS011;74826;50.812;16.038;2024-03-23T14:06:38;3.67;;;2.28;;
84591;SDS011;74826;50.812;16.038;2024-03-23T14:09:04;3.05;;;1.75;;
84591;SDS011;74826;50.812;16.038;2024-03-23T14:11:30;2.75;;;1.67;;
84591;SDS011;74826;50.812;16.038;2024-03-23T14:13:56;2.20;;;1.27;;
84591;SDS011;74826;50.812;16.038;2024-03-23T14:16:21;2.72;;;1.67;;
84591;SDS011;74826;50.812;16.038;2024-03-23T14:18:47;2.60;;;1.83;;
84591;SDS011;74826;50.812;16.038;2024-03-23T14:21:12;1.85;;;1.13;;
84591;SDS011;74826;50.812;16.038;2024-03-23T14:23:38;1.55;;;1.20;;
84591;SDS011;74826;50.812;16.038;2024-03-23T14:26:03;1.98;;;1.50;;
84591;SDS011;74826;50.812;16.038;2024-03-23T14:28:29;2.22;;;1.90;;
84591;SDS011;74826;50.812;16.038;2024-03-23T14:30:55;2.25;;;2.05;;
84591;SDS011;74826;50.812;16.038;2024-03-23T14:33:21;2.03;;;1.58;;
84591;SDS011;74826;50.812;16.038;2024-03-23T14:35:56;2.25;;;1.98;;
84591;SDS011;74826;50.812;16.038;2024-03-23T14:38:22;3.13;;;1.58;;
84591;SDS011;74826;50.812;16.038;2024-03-23T14:40:48;2.30;;;1.85;;
84591;SDS011;74826;50.812;16.038;2024-03-23T14:43:14;2.83;;;1.48;;
84591;SDS011;74826;50.812;16.038;2024-03-23T14:48:40;2.85;;;1.52;;
84591;SDS011;74826;50.812;16.038;2024-03-23T14:51:06;1.75;;;1.00;;
84591;SDS011;74826;50.812;16.038;2024-03-23T14:53:33;2.00;;;1.58;;
84591;SDS011;74826;50.812;16.038;2024-03-23T14:56:00;2.20;;;0.82;;
84591;SDS011;74826;50.812;16.038;2024-03-23T14:58:27;2.97;;;1.95;;
84591;SDS011;74826;50.812;16.038;2024-03-23T15:00:53;2.25;;;1.75;;
84591;SDS011;74826;50.812;16.038;2024-03-23T15:03:24;3.03;;;1.60;;
84591;SDS011;74826;50.812;16.038;2024-03-23T15:05:53;3.75;;;1.83;;
84591;SDS011;74826;50.812;16.038;2024-03-23T15:08:22;1.80;;;1.30;;
84591;SDS011;74826;50.812;16.038;2024-03-23T15:10:48;2.17;;;1.30;;
84591;SDS011;74826;50.812;16.038;2024-03-23T15:13:14;2.83;;;1.48;;
84591;SDS011;74826;50.812;16.038;2024-03-23T15:15:40;12.57;;;4.93;;
84591;SDS011;74826;50.812;16.038;2024-03-23T15:18:08;23.92;;;6.07;;
84591;SDS011;74826;50.812;16.038;2024-03-23T15:20:34;8.65;;;5.25;;
84591;SDS011;74826;50.812;16.038;2024-03-23T15:23:01;6.68;;;4.07;;
84591;SDS011;74826;50.812;16.038;2024-03-23T15:25:27;3.22;;;2.35;;
84591;SDS011;74826;50.812;16.038;2024-03-23T15:27:53;3.20;;;1.88;;
84591;SDS011;74826;50.812;16.038;2024-03-23T15:30:19;2.20;;;1.20;;
84591;SDS011;74826;50.812;16.038;2024-03-23T15:32:45;3.38;;;1.38;;
84591;SDS011;74826;50.812;16.038;2024-03-23T15:35:10;3.10;;;2.05;;
84591;SDS011;74826;50.812;16.038;2024-03-23T15:37:36;3.00;;;1.80;;
84591;SDS011;74826;50.812;16.038;2024-03-23T15:40:04;3.95;;;2.10;;
84591;SDS011;74826;50.812;16.038;2024-03-23T15:44:55;2.33;;;1.20;;
84591;SDS011;74826;50.812;16.038;2024-03-23T15:47:21;2.67;;;1.70;;
84591;SDS011;74826;50.812;16.038;2024-03-23T15:49:46;3.15;;;1.67;;
84591;SDS011;74826;50.812;16.038;2024-03-23T15:52:11;3.90;;;2.42;;
84591;SDS011;74826;50.812;16.038;2024-03-23T15:54:37;4.05;;;2.35;;
84591;SDS011;74826;50.812;16.038;2024-03-23T15:57:02;3.95;;;1.90;;
84591;SDS011;74826;50.812;16.038;2024-03-23T15:59:28;4.15;;;2.33;;
84591;SDS011;74826;50.812;16.038;2024-03-23T16:04:20;4.82;;;2.92;;
84591;SDS011;74826;50.812;16.038;2024-03-23T16:06:45;5.00;;;2.47;;
84591;SDS011;74826;50.812;16.038;2024-03-23T16:09:10;4.80;;;2.58;;
84591;SDS011;74826;50.812;16.038;2024-03-23T16:11:36;3.90;;;1.48;;
84591;SDS011;74826;50.812;16.038;2024-03-23T16:14:01;5.28;;;3.15;;
84591;SDS011;74826;50.812;16.038;2024-03-23T16:16:26;6.30;;;3.78;;
84591;SDS011;74826;50.812;16.038;2024-03-23T16:18:53;5.57;;;4.38;;